Flight Track Log - Related Links

Times and Time Zones

All times are in EST time to prevent confusion due to time zone crossing. See the CMF5SP flight status page for this flight to view local times or setup timezone preferences in your user account.

Time Position Orientation Groundspeed Altitude Reporting Facility
EST Latitude Longitude Course Direction KTS MPH feet Rate Location/Type
Wed 12:32:34 PM 40.9000 -74.0000 37° Northeast 159 183 1,600  Level New York TRACON
Wed 12:33:34 PM 40.9333 -73.9667 37° Northeast 160 184 1,500 -50 Descending New York TRACON
Wed 12:34:34 PM 40.9833 -73.9667 360° North 152 175 1,500 300 Level New York TRACON
Wed 12:35:34 PM 41.0167 -73.9667 360° North 138 159 2,100 550 Climbing New York TRACON
Wed 12:36:34 PM 41.0500 -73.9667 360° North 140 161 2,600 250 Climbing New York TRACON
Wed 12:37:34 PM 41.1000 -73.9667 360° North 155 178 2,600 150 Level New York TRACON
Wed 12:38:34 PM 41.1333 -73.9500 21° North 139 160 2,900 200 Climbing New York TRACON
Wed 12:39:34 PM 41.1667 -73.9500 360° North 153 176 3,000 -150 Climbing New York TRACON
Wed 12:40:34 PM 41.2167 -73.9333 14° North 168 193 2,600 -300 Descending New York TRACON
Wed 12:41:34 PM 41.2667 -73.9333 360° North 156 180 2,400 -100 Descending New York TRACON
Wed 12:42:34 PM 41.3000 -73.9333 360° North 153 176 2,400  Level New York TRACON
Wed 12:43:28 PM 41.3500 -73.9167 14° North 152 175 2,400  Level New York TRACON
Wed 12:44:28 PM 41.3833 -73.9167 360° North 152 175 2,400  Level New York TRACON
Wed 12:45:28 PM 41.4333 -73.9167 360° North 154 177 2,400 50 Level New York TRACON
Wed 12:46:28 PM 41.4667 -73.9000 21° North 155 178 2,500 -50 Climbing New York TRACON
Wed 12:47:28 PM 41.5167 -73.9000 360° North 143 165 2,300 -450 Descending New York TRACON
Wed 12:48:28 PM 41.5500 -73.9000 360° North 145 167 1,600 -550 Descending New York TRACON
Wed 12:49:28 PM 41.5833 -73.8833 21° North 142 163 1,200 -350 Descending New York TRACON
Wed 12:50:28 PM 41.6167 -73.8667 20° North 94 108 900 -450 Descending New York TRACON
Wed 12:51:28 PM 41.6333 -73.8667 360° North 95 109 300 -600 Descending New York TRACON
Wed 12:53:00 PM 41.6167 -73.8833 90° East  Level FlightAware Approximate
Wed 01:00:00 PM 41.6266 -73.8842 90° East  Level Estimated
Wed 01:01:00 PM 41.6266 -73.8842 90° East  Level Estimated
Wed 01:02:00 PM 41.6266 -73.8842 90° East  Level Estimated
Wed 01:03:00 PM 41.6266 -73.8842 90° East  Level Estimated
Wed 01:04:00 PM 41.6266 -73.8842 90° East  Level Estimated
Wed 01:05:00 PM 41.6266 -73.8842 90° East  Level Estimated

Login

Don't have an account? Register now (free) for customized features, flight alerts, and more!